Time;durP1;ratioP1;P1;durP2;ratioP2;P2;SDS_P1;SDS_P2;PMS_P1;PMS_P2;Temp;Humidity;BMP_temperature;BMP_pressure;BME280_temperature;BME280_humidity;BME280_pressure;Samples;Min_cycle;Max_cycle;Signal;HPM_P1;HPM_P2
2022/10/15 00:02:07;;;;;;;21.65;8.68;;;14.00;90.50;;;;;;5002660;28;20058;-69
2022/10/15 00:04:33;;;;;;;16.80;7.65;;;14.00;90.50;;;;;;5002056;28;20421;-68
2022/10/15 00:06:59;;;;;;;14.95;8.18;;;14.00;90.60;;;;;;5003332;28;20018;-67
2022/10/15 00:09:24;;;;;;;21.02;7.93;;;14.00;90.60;;;;;;5001540;28;20041;-68
2022/10/15 00:11:50;;;;;;;28.40;8.27;;;13.90;90.50;;;;;;5005069;28;20025;-68
2022/10/15 00:14:17;;;;;;;27.30;7.95;;;13.90;90.50;;;;;;4997321;28;20033;-68
2022/10/15 00:16:42;;;;;;;61.42;8.95;;;13.90;90.50;;;;;;5002869;28;20105;-68
2022/10/15 00:19:08;;;;;;;25.83;7.95;;;13.90;90.50;;;;;;5000058;28;20113;-68
2022/10/15 00:21:34;;;;;;;18.52;7.32;;;13.80;90.40;;;;;;5003364;28;20050;-67
2022/10/15 00:24:00;;;;;;;25.67;8.25;;;13.80;90.40;;;;;;5000754;28;20417;-68
2022/10/15 00:26:27;;;;;;;18.45;7.63;;;13.80;90.40;;;;;;5005423;28;20033;-68
2022/10/15 00:28:55;;;;;;;20.67;7.60;;;13.80;90.40;;;;;;5006642;28;20477;-69
2022/10/15 00:31:23;;;;;;;12.02;7.78;;;13.70;90.40;;;;;;5013005;28;20052;-68
2022/10/15 00:33:50;;;;;;;26.75;11.50;;;13.70;90.40;;;;;;5009873;28;20044;-67
2022/10/15 00:36:19;;;;;;;17.40;11.95;;;13.60;90.30;;;;;;5006805;28;20045;-67
2022/10/15 00:38:45;;;;;;;14.05;11.10;;;13.60;90.40;;;;;;5010338;28;20723;-69
2022/10/15 00:41:17;;;;;;;14.15;10.48;;;13.50;90.40;;;;;;5010911;28;20030;-67
2022/10/15 00:43:47;;;;;;;12.80;9.48;;;13.60;90.50;;;;;;5012446;28;20499;-68
2022/10/15 00:46:29;;;;;;;12.20;9.25;;;13.50;90.50;;;;;;5010135;28;20029;-67
2022/10/15 00:49:00;;;;;;;12.15;9.02;;;13.60;90.50;;;;;;5010465;28;20028;-67
2022/10/15 00:51:32;;;;;;;12.38;9.43;;;13.60;90.40;;;;;;5008275;28;20373;-65
2022/10/15 00:53:58;;;;;;;13.18;9.57;;;13.60;90.40;;;;;;5009962;28;20399;-66
2022/10/15 00:56:26;;;;;;;10.75;8.35;;;13.50;90.40;;;;;;5009923;28;20032;-66
2022/10/15 00:58:54;;;;;;;12.40;9.85;;;13.50;90.40;;;;;;5009903;28;20037;-65
2022/10/15 01:01:20;;;;;;;12.32;9.55;;;13.50;90.40;;;;;;5005768;28;20057;-65
2022/10/15 01:03:45;;;;;;;12.05;9.68;;;13.50;90.40;;;;;;5007038;28;20064;-66
2022/10/15 01:06:11;;;;;;;15.38;10.45;;;13.50;90.50;;;;;;5008884;28;20105;-66
2022/10/15 01:08:36;;;;;;;17.08;12.98;;;13.40;90.50;;;;;;5009608;28;20100;-65
2022/10/15 01:11:20;;;;;;;17.33;13.07;;;13.40;90.50;;;;;;5009277;28;20029;-67
2022/10/15 01:13:52;;;;;;;16.58;12.82;;;13.40;90.50;;;;;;5006630;28;20053;-66
2022/10/15 01:16:33;;;;;;;18.88;14.32;;;13.40;90.50;;;;;;5004889;28;20567;-65
2022/10/15 01:19:10;;;;;;;15.85;12.15;;;13.30;90.50;;;;;;5008640;28;20488;-65
2022/10/15 01:21:56;;;;;;;13.63;10.93;;;13.30;90.50;;;;;;5007143;28;20116;-66
2022/10/15 01:24:41;;;;;;;15.95;12.23;;;13.30;90.50;;;;;;5007306;28;20053;-69
2022/10/15 01:27:31;;;;;;;18.88;14.90;;;13.30;90.50;;;;;;5007768;28;20427;-65
2022/10/15 01:30:10;;;;;;;19.00;13.85;;;13.30;90.50;;;;;;5007543;28;20033;-64
2022/10/15 01:33:09;;;;;;;21.75;15.90;;;13.30;90.50;;;;;;5007059;28;20041;-66
2022/10/15 01:35:53;;;;;;;19.48;14.55;;;13.30;90.50;;;;;;5001271;28;20118;-66
2022/10/15 01:38:43;;;;;;;17.50;13.50;;;13.30;90.50;;;;;;5007066;28;20445;-66
2022/10/15 01:41:17;;;;;;;17.02;12.90;;;13.40;90.50;;;;;;5001309;28;20089;-66
2022/10/15 01:43:49;;;;;;;18.90;14.73;;;13.40;90.50;;;;;;5009684;28;20093;-66
2022/10/15 01:46:22;;;;;;;18.08;13.23;;;13.40;90.40;;;;;;5008174;28;20050;-66
2022/10/15 01:48:51;;;;;;;29.05;20.48;;;13.40;90.40;;;;;;5006861;28;20053;-63
2022/10/15 01:51:18;;;;;;;23.27;16.65;;;13.50;90.50;;;;;;5006318;28;20447;-66
2022/10/15 01:53:45;;;;;;;23.15;14.80;;;13.50;90.50;;;;;;5009329;28;20589;-66
2022/10/15 01:56:16;;;;;;;18.42;13.88;;;13.50;90.50;;;;;;5012003;28;20034;-66
2022/10/15 01:58:43;;;;;;;17.48;13.27;;;13.50;90.50;;;;;;5008429;28;20092;-68
2022/10/15 02:01:10;;;;;;;18.83;13.38;;;13.50;90.50;;;;;;5014018;28;20036;-68
2022/10/15 02:03:44;;;;;;;17.60;12.50;;;13.60;90.40;;;;;;5013756;28;20025;-67
2022/10/15 02:06:16;;;;;;;18.08;12.80;;;13.60;90.40;;;;;;5011882;28;20026;-68
2022/10/15 02:09:01;;;;;;;21.13;15.73;;;13.60;90.40;;;;;;5012398;28;20464;-67
2022/10/15 02:11:28;;;;;;;19.33;13.88;;;13.60;90.30;;;;;;5013466;28;20034;-67
2022/10/15 02:14:05;;;;;;;21.70;15.95;;;13.60;90.30;;;;;;5012275;28;20030;-68
2022/10/15 02:16:39;;;;;;;21.20;14.65;;;13.60;90.30;;;;;;5002412;28;20045;-66
2022/10/15 02:19:31;;;;;;;22.98;15.38;;;13.60;90.30;;;;;;5006830;28;20025;-66
2022/10/15 02:22:12;;;;;;;19.93;14.80;;;13.60;90.30;;;;;;5012234;28;20553;-67
2022/10/15 02:24:48;;;;;;;22.75;15.77;;;13.60;90.40;;;;;;5009589;28;20108;-66
2022/10/15 02:27:15;;;;;;;28.15;19.23;;;13.60;90.30;;;;;;5008255;28;20022;-65
2022/10/15 02:29:43;;;;;;;20.35;14.90;;;13.60;90.40;;;;;;5011644;28;20113;-67
2022/10/15 02:32:10;;;;;;;31.52;22.40;;;13.60;90.40;;;;;;5010107;28;20037;-67
2022/10/15 02:34:37;;;;;;;28.75;20.75;;;13.50;90.40;;;;;;5011701;28;20030;-67
2022/10/15 02:37:04;;;;;;;23.73;16.58;;;13.50;90.50;;;;;;5005141;28;20056;-66
2022/10/15 02:39:30;;;;;;;25.38;17.77;;;13.50;90.60;;;;;;5009045;28;20061;-66
2022/10/15 02:41:56;;;;;;;23.25;16.08;;;13.50;90.50;;;;;;5009176;28;20065;-65
2022/10/15 02:44:22;;;;;;;23.60;16.40;;;13.50;90.50;;;;;;5000866;28;20439;-66
2022/10/15 02:46:48;;;;;;;16.50;12.40;;;13.40;90.50;;;;;;4994124;28;20023;-67
2022/10/15 02:49:13;;;;;;;23.00;16.42;;;13.50;90.60;;;;;;5011661;28;20037;-67
2022/10/15 02:51:39;;;;;;;23.90;16.75;;;13.50;90.50;;;;;;5012361;28;20049;-69
2022/10/15 02:54:06;;;;;;;20.42;14.45;;;13.50;90.60;;;;;;5011290;28;20029;-67
2022/10/15 02:56:32;;;;;;;19.10;13.40;;;13.50;90.60;;;;;;5005482;28;20058;-66
2022/10/15 02:58:57;;;;;;;19.15;13.65;;;13.50;90.60;;;;;;5004935;28;20514;-66
2022/10/15 03:01:23;;;;;;;17.73;12.48;;;13.50;90.80;;;;;;5006983;28;20074;-67
2022/10/15 03:03:48;;;;;;;20.80;14.27;;;13.60;90.50;;;;;;5006425;28;20026;-68
2022/10/15 03:06:14;;;;;;;19.15;13.50;;;13.50;90.50;;;;;;5008485;28;20396;-68
2022/10/15 03:08:41;;;;;;;17.15;12.35;;;13.60;90.50;;;;;;5011317;28;20378;-67
2022/10/15 03:11:07;;;;;;;19.20;12.93;;;13.50;90.50;;;;;;5011541;28;20028;-68
2022/10/15 03:13:37;;;;;;;18.67;12.98;;;13.50;90.40;;;;;;5011150;28;20026;-65
2022/10/15 03:16:08;;;;;;;16.00;11.85;;;13.50;90.50;;;;;;5016324;28;20029;-68
2022/10/15 03:18:33;;;;;;;18.00;13.48;;;13.50;90.50;;;;;;5010566;28;20029;-67
2022/10/15 03:20:59;;;;;;;20.95;13.70;;;13.60;90.40;;;;;;5004362;28;20432;-68
2022/10/15 03:23:26;;;;;;;17.23;11.55;;;13.50;90.40;;;;;;5006530;28;20072;-67
2022/10/15 03:25:53;;;;;;;17.27;11.98;;;13.50;90.50;;;;;;5009527;28;20060;-66
2022/10/15 03:28:19;;;;;;;16.83;11.57;;;13.50;90.40;;;;;;5010160;28;20014;-68
2022/10/15 03:30:45;;;;;;;16.15;11.02;;;13.50;90.40;;;;;;5009984;28;20029;-68
2022/10/15 03:33:10;;;;;;;15.65;11.18;;;13.50;90.40;;;;;;5007152;28;20092;-68
2022/10/15 03:35:36;;;;;;;15.88;11.13;;;13.60;90.50;;;;;;5009657;28;20487;-67
2022/10/15 03:38:02;;;;;;;14.90;10.48;;;13.60;90.40;;;;;;5011062;28;20112;-69
2022/10/15 03:40:28;;;;;;;15.70;11.73;;;13.60;90.40;;;;;;5010379;28;20122;-68
2022/10/15 03:42:55;;;;;;;16.48;12.10;;;13.60;90.30;;;;;;5009957;28;20245;-67
2022/10/15 03:45:21;;;;;;;16.35;11.23;;;13.60;90.30;;;;;;5004157;28;20084;-67
2022/10/15 03:47:47;;;;;;;18.27;12.80;;;13.60;90.30;;;;;;5008343;28;20026;-68
2022/10/15 03:50:13;;;;;;;20.92;14.73;;;13.60;90.30;;;;;;5010635;28;20026;-67
2022/10/15 03:52:39;;;;;;;17.20;11.90;;;13.60;90.30;;;;;;5010803;28;20030;-66
2022/10/15 03:55:05;;;;;;;17.63;12.93;;;13.60;90.30;;;;;;4996505;28;20026;-69
2022/10/15 03:57:31;;;;;;;17.88;12.88;;;13.60;90.30;;;;;;5002680;28;20112;-68
2022/10/15 03:59:57;;;;;;;16.80;12.15;;;13.60;90.30;;;;;;5011984;28;20623;-67
2022/10/15 04:02:23;;;;;;;22.80;16.08;;;13.70;90.30;;;;;;5011472;28;20070;-67
2022/10/15 04:04:52;;;;;;;23.80;15.70;;;13.70;90.20;;;;;;5010054;28;20103;-66
2022/10/15 04:07:18;;;;;;;21.73;15.13;;;13.70;90.30;;;;;;5010650;28;20013;-68
2022/10/15 04:09:44;;;;;;;23.23;16.02;;;13.70;90.20;;;;;;5010096;28;20517;-64
2022/10/15 04:12:09;;;;;;;23.60;15.73;;;13.70;90.20;;;;;;5007891;28;20152;-67
2022/10/15 04:14:35;;;;;;;20.67;14.85;;;13.60;90.20;;;;;;5009594;28;20054;-66
2022/10/15 04:17:00;;;;;;;18.90;13.30;;;13.60;90.20;;;;;;5009366;28;20034;-66
2022/10/15 04:19:26;;;;;;;14.82;10.73;;;13.60;90.30;;;;;;5009573;28;20026;-65
2022/10/15 04:21:51;;;;;;;23.70;15.32;;;13.70;90.30;;;;;;5008843;28;20029;-67
2022/10/15 04:24:17;;;;;;;23.73;15.57;;;13.70;90.20;;;;;;5007774;28;20018;-67
2022/10/15 04:26:43;;;;;;;21.88;15.88;;;13.60;90.20;;;;;;5013490;28;20034;-65
2022/10/15 04:29:08;;;;;;;18.30;12.75;;;13.60;90.30;;;;;;5009877;28;20032;-67
2022/10/15 04:31:34;;;;;;;20.92;15.65;;;13.60;90.40;;;;;;5008360;28;20037;-67
2022/10/15 04:33:59;;;;;;;21.42;15.05;;;13.60;90.30;;;;;;5009805;28;20372;-66
2022/10/15 04:36:25;;;;;;;21.70;15.32;;;13.60;90.40;;;;;;5001978;28;20539;-67
2022/10/15 04:38:51;;;;;;;19.38;13.90;;;13.60;90.40;;;;;;5010176;28;20508;-68
2022/10/15 04:41:17;;;;;;;15.32;11.60;;;13.60;90.40;;;;;;5009741;28;20030;-69
2022/10/15 04:43:42;;;;;;;16.45;13.07;;;13.60;90.40;;;;;;5009327;28;20022;-67
2022/10/15 04:46:08;;;;;;;24.17;17.45;;;13.60;90.40;;;;;;5009332;28;20435;-67
2022/10/15 04:48:35;;;;;;;18.05;13.40;;;13.60;90.40;;;;;;5002616;28;20358;-67
2022/10/15 04:51:11;;;;;;;21.58;15.63;;;13.60;90.50;;;;;;5007412;28;20030;-68
2022/10/15 04:53:37;;;;;;;19.65;15.13;;;13.70;90.50;;;;;;5010562;28;20083;-68
2022/10/15 04:56:04;;;;;;;17.05;13.00;;;13.60;90.40;;;;;;5009547;28;20105;-67
2022/10/15 04:58:31;;;;;;;18.27;13.65;;;13.70;90.50;;;;;;5009282;28;20022;-67
2022/10/15 05:01:11;;;;;;;18.88;13.82;;;13.70;90.50;;;;;;5009225;28;20368;-67
2022/10/15 05:03:37;;;;;;;16.15;12.85;;;13.70;90.50;;;;;;5007775;28;20100;-68
2022/10/15 05:06:05;;;;;;;21.25;15.93;;;13.80;90.50;;;;;;5007044;28;20152;-69
2022/10/15 05:08:33;;;;;;;19.60;15.60;;;13.80;90.50;;;;;;5002750;28;20030;-68
2022/10/15 05:11:07;;;;;;;22.45;16.00;;;13.70;90.50;;;;;;5008638;28;20120;-67
2022/10/15 05:13:33;;;;;;;22.77;15.35;;;13.80;90.60;;;;;;5009657;28;20045;-67
2022/10/15 05:16:15;;;;;;;21.67;16.15;;;13.80;90.50;;;;;;5005980;28;20022;-67
2022/10/15 05:18:43;;;;;;;19.50;14.98;;;13.80;90.60;;;;;;5003735;28;20030;-67
2022/10/15 05:21:09;;;;;;;16.27;13.05;;;13.80;90.60;;;;;;5006573;28;20041;-67
2022/10/15 05:23:35;;;;;;;20.55;15.85;;;13.80;90.60;;;;;;5009209;28;20451;-68
2022/10/15 05:26:10;;;;;;;34.70;18.67;;;13.80;90.60;;;;;;5003556;28;20034;-66
2022/10/15 05:28:36;;;;;;;20.67;15.30;;;13.80;90.60;;;;;;5009684;28;20037;-66
2022/10/15 05:31:13;;;;;;;20.20;15.63;;;13.80;90.70;;;;;;5012466;28;20022;-67
2022/10/15 05:33:39;;;;;;;18.20;12.90;;;13.80;90.70;;;;;;5012146;28;20635;-67
2022/10/15 05:36:16;;;;;;;19.33;14.65;;;13.80;90.70;;;;;;5013101;28;20037;-68
2022/10/15 05:38:45;;;;;;;21.92;14.65;;;13.80;90.70;;;;;;5008846;28;20030;-67
2022/10/15 05:41:10;;;;;;;20.50;15.23;;;13.90;90.70;;;;;;5003121;28;20400;-67
2022/10/15 05:43:36;;;;;;;24.10;17.08;;;13.90;90.70;;;;;;5012858;28;20033;-68
2022/10/15 05:46:02;;;;;;;19.02;13.55;;;13.90;90.70;;;;;;5012876;28;20022;-67
2022/10/15 05:48:27;;;;;;;29.58;20.25;;;13.90;90.70;;;;;;5012708;28;20033;-67
2022/10/15 05:50:58;;;;;;;24.23;18.33;;;13.90;90.80;;;;;;5012068;28;20034;-66
2022/10/15 05:53:24;;;;;;;21.33;16.05;;;13.90;90.80;;;;;;5012799;28;20026;-68
2022/10/15 05:55:52;;;;;;;21.00;15.45;;;13.80;90.80;;;;;;5013068;28;20068;-67
2022/10/15 05:58:17;;;;;;;22.70;16.55;;;13.90;90.90;;;;;;5011068;28;20018;-67
2022/10/15 06:00:43;;;;;;;27.33;19.90;;;13.90;90.90;;;;;;4997930;28;20038;-67
2022/10/15 06:03:13;;;;;;;26.58;18.95;;;13.90;90.90;;;;;;5012113;28;20657;-67
2022/10/15 06:05:39;;;;;;;26.38;20.20;;;13.80;90.90;;;;;;5001959;28;20029;-66
2022/10/15 06:08:04;;;;;;;20.75;15.50;;;13.90;91.10;;;;;;5012754;28;20072;-67
2022/10/15 06:10:33;;;;;;;26.73;18.42;;;13.90;91.10;;;;;;5011445;28;20132;-66
2022/10/15 06:12:59;;;;;;;22.20;16.45;;;13.90;91.10;;;;;;5011240;28;20436;-67
2022/10/15 06:15:24;;;;;;;25.80;19.55;;;13.90;91.10;;;;;;5008375;28;20038;-68
2022/10/15 06:17:55;;;;;;;20.58;15.82;;;13.90;91.10;;;;;;5009030;28;20037;-65
2022/10/15 06:20:21;;;;;;;20.08;15.43;;;13.90;91.10;;;;;;5006452;28;20089;-66
2022/10/15 06:22:46;;;;;;;33.38;24.02;;;14.00;91.10;;;;;;5008461;28;20030;-65
2022/10/15 06:25:12;;;;;;;28.33;18.83;;;13.90;91.20;;;;;;5006589;28;20018;-65
2022/10/15 06:27:38;;;;;;;42.63;25.35;;;13.90;91.30;;;;;;5005799;28;20022;-65
2022/10/15 06:30:05;;;;;;;27.73;19.15;;;13.90;91.40;;;;;;5012084;28;20459;-67
2022/10/15 06:32:30;;;;;;;24.02;18.48;;;13.90;91.50;;;;;;5012599;28;20492;-65
2022/10/15 06:34:56;;;;;;;24.20;17.70;;;13.90;91.60;;;;;;5012036;28;20033;-69
2022/10/15 06:37:22;;;;;;;18.77;14.18;;;14.00;91.60;;;;;;5012576;28;20037;-67
2022/10/15 06:39:47;;;;;;;22.15;16.75;;;14.00;91.60;;;;;;5010535;28;20029;-67
2022/10/15 06:42:13;;;;;;;21.00;15.38;;;14.00;91.60;;;;;;5007893;28;20030;-67
2022/10/15 06:44:39;;;;;;;39.03;25.27;;;14.00;91.60;;;;;;5004505;28;20071;-67
2022/10/15 06:47:05;;;;;;;22.48;16.73;;;14.00;91.60;;;;;;5002052;28;20033;-65
2022/10/15 06:49:30;;;;;;;19.58;14.25;;;14.00;91.80;;;;;;5011044;28;20026;-68
2022/10/15 06:51:57;;;;;;;20.52;15.27;;;14.00;91.80;;;;;;5012206;28;20111;-67
2022/10/15 06:54:23;;;;;;;22.95;16.08;;;14.00;91.70;;;;;;5011863;28;20026;-64
2022/10/15 06:56:49;;;;;;;24.88;16.67;;;14.10;91.80;;;;;;5002125;28;20496;-66
2022/10/15 06:59:15;;;;;;;26.70;18.63;;;14.10;91.80;;;;;;5012459;28;20117;-67
2022/10/15 07:01:41;;;;;;;21.40;14.68;;;14.10;91.80;;;;;;5010273;28;20052;-68
2022/10/15 07:04:06;;;;;;;20.10;13.90;;;14.10;91.90;;;;;;5008977;28;20089;-67
2022/10/15 07:06:34;;;;;;;32.60;21.50;;;14.10;91.90;;;;;;5009988;28;20029;-67
2022/10/15 07:09:04;;;;;;;21.33;15.05;;;14.10;91.80;;;;;;5010941;28;20393;-64
2022/10/15 07:11:30;;;;;;;26.25;17.50;;;14.20;91.90;;;;;;5010769;28;20536;-65
2022/10/15 07:13:56;;;;;;;22.02;15.45;;;14.20;91.90;;;;;;5009653;28;20089;-66
2022/10/15 07:16:22;;;;;;;17.27;13.07;;;14.20;92.00;;;;;;5010498;28;20124;-66
2022/10/15 07:18:48;;;;;;;20.83;14.43;;;14.20;91.90;;;;;;5007278;28;20104;-66
2022/10/15 07:21:13;;;;;;;21.67;16.08;;;14.30;91.90;;;;;;5011009;28;20444;-67
2022/10/15 07:23:39;;;;;;;21.40;15.93;;;14.30;91.80;;;;;;5010677;28;20527;-67
2022/10/15 07:26:04;;;;;;;22.73;15.93;;;14.40;91.80;;;;;;5010971;28;20026;-66
2022/10/15 07:28:30;;;;;;;26.83;17.10;;;14.40;91.80;;;;;;5010889;28;20026;-64
2022/10/15 07:31:00;;;;;;;25.10;16.73;;;14.40;91.70;;;;;;5011451;28;20026;-68
2022/10/15 07:33:26;;;;;;;20.80;14.90;;;14.40;91.70;;;;;;5009938;28;20026;-66
2022/10/15 07:35:52;;;;;;;18.40;12.77;;;14.50;92.00;;;;;;5010720;28;20137;-67
2022/10/15 07:38:17;;;;;;;23.77;17.15;;;14.50;91.70;;;;;;5010915;28;20448;-66
2022/10/15 07:40:44;;;;;;;23.05;15.38;;;14.50;91.60;;;;;;5011061;28;20030;-66
2022/10/15 07:43:09;;;;;;;20.10;14.13;;;14.60;91.60;;;;;;5009606;28;20109;-66
2022/10/15 07:45:35;;;;;;;18.33;13.25;;;14.60;91.60;;;;;;5006061;28;20130;-66
2022/10/15 07:48:01;;;;;;;19.88;14.30;;;14.60;91.50;;;;;;5004585;28;20028;-65
2022/10/15 07:50:26;;;;;;;19.95;14.65;;;14.70;91.50;;;;;;5005536;28;20030;-67
2022/10/15 07:52:52;;;;;;;17.33;13.05;;;14.70;91.50;;;;;;4999189;28;20093;-66
2022/10/15 07:55:17;;;;;;;18.92;13.93;;;14.70;91.50;;;;;;5002814;28;20034;-67
2022/10/15 07:57:43;;;;;;;26.58;17.98;;;14.70;91.50;;;;;;5005296;28;20053;-67
2022/10/15 08:00:09;;;;;;;21.35;15.65;;;14.70;91.40;;;;;;5000837;28;20015;-67
2022/10/15 08:02:35;;;;;;;22.17;15.93;;;14.70;91.50;;;;;;5007771;28;20030;-67
2022/10/15 08:05:00;;;;;;;22.65;16.30;;;14.70;91.50;;;;;;4998742;28;20527;-67
2022/10/15 08:07:26;;;;;;;26.40;18.08;;;14.70;91.50;;;;;;5005981;28;20022;-67
2022/10/15 08:09:51;;;;;;;26.15;17.13;;;14.70;91.50;;;;;;5004247;28;20497;-66
2022/10/15 08:12:17;;;;;;;24.75;17.55;;;14.70;91.40;;;;;;5001452;28;20017;-67
2022/10/15 08:14:42;;;;;;;20.73;15.60;;;14.80;91.40;;;;;;5004502;28;20028;-66
2022/10/15 08:17:08;;;;;;;20.27;15.05;;;14.80;91.40;;;;;;5002976;28;20045;-67
2022/10/15 08:19:34;;;;;;;21.95;15.32;;;14.90;91.40;;;;;;5001748;28;20365;-66
2022/10/15 08:22:00;;;;;;;21.48;15.10;;;14.90;91.30;;;;;;5002029;28;20040;-67
2022/10/15 08:24:25;;;;;;;19.90;14.05;;;15.00;91.30;;;;;;5001629;28;20090;-67
2022/10/15 08:26:51;;;;;;;20.02;14.70;;;15.10;91.30;;;;;;5004178;28;20029;-66
2022/10/15 08:29:16;;;;;;;27.73;19.25;;;15.10;91.20;;;;;;5004441;28;20026;-67
2022/10/15 08:31:42;;;;;;;24.63;15.90;;;15.20;91.00;;;;;;5000508;28;20140;-66
2022/10/15 08:34:07;;;;;;;22.55;15.90;;;15.20;91.00;;;;;;5001895;28;20052;-65
2022/10/15 08:36:33;;;;;;;19.42;13.82;;;15.30;91.00;;;;;;5003501;28;20049;-67
2022/10/15 08:38:59;;;;;;;18.30;13.90;;;15.40;90.90;;;;;;5005371;28;20440;-68
2022/10/15 08:41:34;;;;;;;16.90;13.00;;;15.50;90.80;;;;;;5004799;28;20038;-67
2022/10/15 08:44:01;;;;;;;22.52;17.00;;;15.70;90.60;;;;;;5003998;28;20032;-67
2022/10/15 08:46:35;;;;;;;15.18;11.85;;;15.70;90.40;;;;;;5004150;28;20052;-67
2022/10/15 08:49:04;;;;;;;18.33;13.60;;;15.70;90.50;;;;;;5002959;28;20026;-67
2022/10/15 08:51:45;;;;;;;20.30;15.27;;;15.70;90.40;;;;;;5008701;28;20022;-68
2022/10/15 08:54:16;;;;;;;20.50;15.10;;;15.80;90.40;;;;;;5004708;28;20032;-67
2022/10/15 08:56:49;;;;;;;28.52;20.88;;;15.70;90.50;;;;;;5006140;28;20080;-67
2022/10/15 08:59:37;;;;;;;18.67;14.15;;;15.70;90.30;;;;;;5006402;28;20030;-65
2022/10/15 09:02:14;;;;;;;17.55;13.10;;;15.60;90.20;;;;;;5003278;28;20022;-67
2022/10/15 09:05:16;;;;;;;17.67;12.65;;;15.70;90.30;;;;;;5008886;28;20736;-67
2022/10/15 09:08:05;;;;;;;19.08;14.43;;;15.80;90.30;;;;;;5009327;28;20022;-67
2022/10/15 09:10:39;;;;;;;18.00;14.13;;;15.90;90.20;;;;;;5011711;28;20057;-68
2022/10/15 09:13:13;;;;;;;22.88;17.45;;;15.90;90.00;;;;;;5010525;28;20554;-68
2022/10/15 09:15:47;;;;;;;17.55;13.70;;;15.90;89.90;;;;;;5012184;28;20029;-68
2022/10/15 09:18:21;;;;;;;14.38;11.32;;;15.90;89.90;;;;;;5011633;28;20036;-67
2022/10/15 09:20:47;;;;;;;16.17;12.30;;;15.90;89.90;;;;;;5010216;28;20030;-68
2022/10/15 09:23:18;;;;;;;17.42;12.32;;;16.00;89.70;;;;;;5007757;28;20392;-67
2022/10/15 09:25:48;;;;;;;12.45;9.70;;;16.00;89.60;;;;;;5007774;28;20050;-67
2022/10/15 09:28:18;;;;;;;10.15;8.40;;;16.10;89.70;;;;;;5006909;28;20026;-66
2022/10/15 09:30:54;;;;;;;16.05;12.57;;;16.20;89.60;;;;;;5004304;28;20026;-65
2022/10/15 09:33:41;;;;;;;15.10;11.05;;;16.10;89.20;;;;;;5005975;28;20038;-67
2022/10/15 09:36:34;;;;;;;16.90;12.05;;;16.10;89.20;;;;;;5002185;28;20034;-66
2022/10/15 09:39:20;;;;;;;13.23;9.88;;;16.10;89.00;;;;;;5007034;28;20160;-67
2022/10/15 09:42:04;;;;;;;14.98;12.15;;;16.10;89.10;;;;;;5005603;28;20076;-67
2022/10/15 09:44:36;;;;;;;11.27;9.07;;;16.10;89.20;;;;;;5001216;28;20108;-67
2022/10/15 09:47:21;;;;;;;13.93;9.63;;;16.20;89.20;;;;;;5010675;28;20029;-67
2022/10/15 09:49:47;;;;;;;12.00;9.07;;;16.20;89.20;;;;;;5006411;28;20018;-66
2022/10/15 09:52:25;;;;;;;8.68;6.47;;;16.30;88.90;;;;;;5003602;28;20030;-66
2022/10/15 09:55:24;;;;;;;11.55;9.15;;;16.30;88.80;;;;;;5003780;28;20786;-67
2022/10/15 09:57:54;;;;;;;10.23;7.55;;;16.30;88.70;;;;;;5003246;28;20026;-66
2022/10/15 10:00:20;;;;;;;10.23;7.75;;;16.40;89.40;;;;;;5005385;28;20045;-66
2022/10/15 10:03:06;;;;;;;11.23;7.78;;;16.50;88.60;;;;;;5006452;28;20120;-70
2022/10/15 10:05:35;;;;;;;10.18;7.75;;;16.40;88.40;;;;;;5009474;28;20117;-65
2022/10/15 10:08:15;;;;;;;11.90;9.55;;;16.40;88.30;;;;;;5007112;28;20076;-66
2022/10/15 10:10:41;;;;;;;10.70;8.60;;;16.30;88.10;;;;;;5008117;28;20026;-65
2022/10/15 10:13:22;;;;;;;9.90;7.57;;;16.30;88.30;;;;;;5003554;28;20022;-65
2022/10/15 10:15:50;;;;;;;9.98;8.07;;;16.20;88.50;;;;;;5007116;28;20038;-67
2022/10/15 10:18:22;;;;;;;9.98;7.53;;;16.10;89.00;;;;;;5007027;28;20044;-66
2022/10/15 10:21:00;;;;;;;9.85;6.80;;;16.20;89.60;;;;;;5004305;28;20042;-66
2022/10/15 10:23:37;;;;;;;10.93;8.05;;;16.30;89.80;;;;;;5004400;28;20487;-65
2022/10/15 10:26:06;;;;;;;10.90;8.35;;;16.30;89.60;;;;;;5006910;28;20033;-66
2022/10/15 10:28:36;;;;;;;9.10;6.95;;;16.30;89.60;;;;;;5007227;28;20040;-67
2022/10/15 10:31:07;;;;;;;8.57;6.40;;;16.30;89.70;;;;;;5006542;28;20515;-65
2022/10/15 10:33:43;;;;;;;10.00;7.28;;;16.30;89.70;;;;;;5007743;28;20018;-65
2022/10/15 10:36:25;;;;;;;11.68;8.60;;;16.30;89.90;;;;;;5009597;28;20034;-66
2022/10/15 10:39:25;;;;;;;8.98;6.68;;;16.30;89.80;;;;;;5005089;28;20044;-67
2022/10/15 10:41:59;;;;;;;8.30;6.35;;;16.30;90.00;;;;;;5003518;28;20041;-66
2022/10/15 10:44:39;;;;;;;11.13;8.02;;;16.30;90.00;;;;;;5001785;28;20519;-67
2022/10/15 10:47:07;;;;;;;10.75;8.38;;;16.30;90.10;;;;;;5005673;28;20122;-66
2022/10/15 10:49:36;;;;;;;9.77;6.68;;;16.20;90.30;;;;;;5008258;28;20022;-68
2022/10/15 10:52:04;;;;;;;13.55;10.77;;;16.20;90.40;;;;;;5008793;28;20025;-67
2022/10/15 10:54:31;;;;;;;19.67;16.38;;;16.20;90.50;;;;;;5007544;28;20029;-68
2022/10/15 10:56:59;;;;;;;14.75;12.35;;;16.20;90.60;;;;;;5005731;28;20022;-67
2022/10/15 10:59:42;;;;;;;12.20;10.02;;;16.20;90.60;;;;;;5012711;28;20115;-67
2022/10/15 11:02:11;;;;;;;15.77;14.27;;;16.20;90.60;;;;;;5008382;28;20535;-67
2022/10/15 11:04:37;;;;;;;10.50;9.32;;;16.20;90.50;;;;;;5010056;28;20511;-66
2022/10/15 11:07:38;;;;;;;10.60;7.93;;;16.30;90.60;;;;;;5007634;28;20041;-67
2022/10/15 11:10:28;;;;;;;10.35;8.23;;;16.20;90.60;;;;;;5008302;28;20113;-66
2022/10/15 11:13:27;;;;;;;8.98;6.95;;;16.20;90.80;;;;;;5003428;28;20097;-65
2022/10/15 11:16:02;;;;;;;15.80;11.35;;;16.20;90.90;;;;;;5006697;28;20087;-67
2022/10/15 11:18:55;;;;;;;10.25;7.20;;;16.20;90.90;;;;;;5005208;28;20028;-66
2022/10/15 11:22:06;;;;;;;10.95;7.55;;;16.20;91.00;;;;;;5008946;28;20108;-67
2022/10/15 11:24:43;;;;;;;9.80;6.82;;;16.10;91.00;;;;;;5004309;28;20112;-66
2022/10/15 11:27:24;;;;;;;8.45;6.43;;;16.10;91.20;;;;;;5005199;28;20030;-67
2022/10/15 11:30:27;;;;;;;10.10;6.93;;;16.10;91.30;;;;;;5025698;28;20113;-66
2022/10/15 11:33:12;;;;;;;9.90;7.00;;;16.00;91.50;;;;;;5005698;28;20041;-66
2022/10/15 11:36:11;;;;;;;9.32;6.95;;;16.10;91.70;;;;;;5011273;28;20033;-67
2022/10/15 11:39:00;;;;;;;7.18;5.43;;;16.10;91.70;;;;;;5004968;28;20030;-67
2022/10/15 11:41:49;;;;;;;7.63;5.70;;;16.10;91.70;;;;;;5005228;28;20089;-66
2022/10/15 11:44:50;;;;;;;8.82;6.00;;;16.10;91.70;;;;;;5004140;28;20018;-67
2022/10/15 11:47:27;;;;;;;11.07;7.30;;;16.10;91.80;;;;;;5006852;28;20026;-66
2022/10/15 11:50:07;;;;;;;9.27;6.50;;;16.10;91.80;;;;;;5005309;28;20033;-66
2022/10/15 11:52:54;;;;;;;8.10;6.10;;;16.10;91.90;;;;;;5008694;28;20412;-65
2022/10/15 11:55:43;;;;;;;7.63;5.75;;;16.10;92.10;;;;;;5010377;28;20405;-66
2022/10/15 11:58:28;;;;;;;7.45;4.82;;;16.10;92.20;;;;;;5010505;28;20026;-66
2022/10/15 12:00:59;;;;;;;6.65;4.93;;;16.20;92.20;;;;;;5008062;28;20365;-66
2022/10/15 12:03:27;;;;;;;6.45;4.47;;;16.30;92.20;;;;;;5007916;28;20030;-66
2022/10/15 12:06:02;;;;;;;5.07;4.10;;;16.30;92.20;;;;;;4999443;28;20040;-67
2022/10/15 12:08:33;;;;;;;8.55;6.70;;;16.30;92.20;;;;;;5007821;28;20053;-67
2022/10/15 12:11:05;;;;;;;7.72;5.80;;;16.40;92.20;;;;;;5007552;28;20034;-67
2022/10/15 12:13:55;;;;;;;6.82;5.60;;;16.30;92.30;;;;;;5006015;28;20022;-66
2022/10/15 12:16:27;;;;;;;5.30;4.20;;;16.30;92.40;;;;;;5003625;28;20432;-67
2022/10/15 12:18:55;;;;;;;;;;;16.30;92.50;;;;;;5008669;28;20069;-67
2022/10/15 12:21:58;;;;;;;5.53;4.32;;;16.40;92.40;;;;;;5000280;28;20371;-67
2022/10/15 12:24:39;;;;;;;;;;;16.40;92.50;;;;;;5007889;28;20069;-66
2022/10/15 12:27:25;;;;;;;6.25;5.25;;;16.40;92.50;;;;;;5001757;28;20350;-66
2022/10/15 12:29:58;;;;;;;4.82;3.72;;;16.40;92.70;;;;;;5008366;28;20026;-67
2022/10/15 12:32:29;;;;;;;5.90;4.78;;;16.40;92.70;;;;;;5005097;28;20037;-66
2022/10/15 12:35:00;;;;;;;4.82;4.00;;;16.40;92.80;;;;;;5007438;28;20506;-65
2022/10/15 12:37:29;;;;;;;5.57;4.53;;;16.50;92.90;;;;;;5007337;28;20069;-67
2022/10/15 12:39:58;;;;;;;4.85;3.90;;;16.50;92.90;;;;;;5004488;28;20101;-65
2022/10/15 12:42:33;;;;;;;5.85;4.60;;;16.60;92.90;;;;;;5008763;28;20053;-66
2022/10/15 12:45:01;;;;;;;6.57;5.00;;;16.60;92.90;;;;;;5002614;28;20026;-67
2022/10/15 12:48:12;;;;;;;5.32;4.30;;;16.70;92.90;;;;;;5007535;28;20022;-66
2022/10/15 12:50:37;;;;;;;3.22;2.92;;;16.60;93.00;;;;;;5007178;28;20021;-67
2022/10/15 12:53:04;;;;;;;4.43;3.22;;;16.70;93.00;;;;;;5004357;28;20028;-66